createdAt,value
2022-10-08T00:03:12.063Z,8.63
2022-10-08T00:05:56.591Z,8.45
2022-10-08T00:08:32.373Z,7.07
2022-10-08T00:11:11.028Z,7.60
2022-10-08T00:13:48.181Z,9.20
2022-10-08T00:16:24.599Z,7.38
2022-10-08T00:19:01.257Z,8.43
2022-10-08T00:21:38.027Z,9.27
2022-10-08T00:24:15.383Z,7.93
2022-10-08T00:26:49.195Z,7.00
2022-10-08T00:31:57.308Z,9.13
2022-10-08T00:34:31.191Z,8.73
2022-10-08T00:39:40.034Z,8.27
2022-10-08T00:42:14.775Z,7.45
2022-10-08T00:44:57.346Z,7.45
2022-10-08T00:47:43.614Z,9.98
2022-10-08T00:50:23.812Z,7.63
2022-10-08T00:53:03.086Z,6.85
2022-10-08T00:55:43.318Z,6.65
2022-10-08T00:58:20.659Z,8.07
2022-10-08T01:00:55.202Z,8.38
2022-10-08T01:03:29.057Z,8.38
2022-10-08T01:06:14.475Z,7.80
2022-10-08T01:08:56.011Z,6.43
2022-10-08T01:11:40.232Z,6.07
2022-10-08T01:17:04.122Z,6.60
2022-10-08T01:20:08.517Z,9.70
2022-10-08T01:23:05.284Z,7.45
2022-10-08T01:25:53.762Z,11.77
2022-10-08T01:28:33.858Z,7.95
2022-10-08T01:31:11.854Z,10.25
2022-10-08T01:33:51.016Z,6.93
2022-10-08T01:36:26.176Z,6.03
2022-10-08T01:39:03.152Z,7.10
2022-10-08T01:41:37.636Z,6.85
2022-10-08T01:44:17.085Z,7.13
2022-10-08T01:46:52.803Z,6.13
2022-10-08T01:49:31.827Z,6.15
2022-10-08T01:52:09.880Z,7.13
2022-10-08T01:54:47.309Z,6.07
2022-10-08T01:57:21.776Z,8.52
2022-10-08T02:00:01.766Z,6.10
2022-10-08T02:02:45.971Z,5.93
2022-10-08T02:05:20.145Z,6.30
2022-10-08T02:07:54.388Z,6.45
2022-10-08T02:10:28.297Z,7.30
2022-10-08T02:13:02.276Z,7.10
2022-10-08T02:15:44.034Z,6.07
2022-10-08T02:18:21.136Z,5.55
2022-10-08T02:21:00.397Z,6.03
2022-10-08T02:23:42.449Z,8.43
2022-10-08T02:26:21.459Z,5.82
2022-10-08T02:29:00.945Z,8.40
2022-10-08T02:31:40.943Z,7.38
2022-10-08T02:34:18.599Z,6.97
2022-10-08T02:36:58.047Z,6.47
2022-10-08T02:39:35.571Z,5.13
2022-10-08T02:42:13.004Z,6.18
2022-10-08T02:44:51.710Z,6.10
2022-10-08T02:47:30.568Z,5.85
2022-10-08T02:50:09.952Z,6.43
2022-10-08T02:52:46.324Z,6.10
2022-10-08T02:55:34.461Z,5.28
2022-10-08T02:58:12.098Z,7.10
2022-10-08T03:00:52.754Z,5.30
2022-10-08T03:03:33.309Z,7.35
2022-10-08T03:06:09.952Z,4.78
2022-10-08T03:08:49.307Z,5.65
2022-10-08T03:11:23.527Z,5.95
2022-10-08T03:13:59.421Z,4.90
2022-10-08T03:16:39.153Z,8.52
2022-10-08T03:19:16.823Z,10.85
2022-10-08T03:21:54.981Z,5.68
2022-10-08T03:24:28.823Z,6.25
2022-10-08T03:27:02.787Z,6.63
2022-10-08T03:29:36.823Z,4.68
2022-10-08T03:34:46.075Z,6.90
2022-10-08T03:37:20.106Z,7.40
2022-10-08T03:39:53.955Z,5.50
2022-10-08T03:45:01.621Z,4.90
2022-10-08T03:47:35.444Z,7.75
2022-10-08T03:52:45.228Z,4.72
2022-10-08T03:55:19.608Z,4.97
2022-10-08T03:57:53.491Z,6.28
2022-10-08T04:00:27.309Z,4.40
2022-10-08T04:05:36.182Z,5.57
2022-10-08T04:08:10.000Z,4.63
2022-10-08T04:13:18.002Z,4.83
2022-10-08T04:15:51.951Z,6.72
2022-10-08T04:18:25.797Z,5.95
2022-10-08T04:23:36.434Z,5.07
2022-10-08T04:26:11.779Z,5.65
2022-10-08T04:28:48.228Z,7.55
2022-10-08T04:31:24.555Z,6.97
2022-10-08T04:33:58.507Z,5.90
2022-10-08T04:36:34.292Z,4.85
2022-10-08T04:39:08.246Z,5.45
2022-10-08T04:41:42.116Z,6.30
2022-10-08T04:44:15.929Z,6.03
2022-10-08T04:49:23.458Z,5.47
2022-10-08T04:54:32.305Z,4.63
2022-10-08T04:57:06.414Z,7.00
2022-10-08T04:59:59.486Z,4.72
2022-10-08T05:02:34.375Z,6.05
2022-10-08T05:05:08.860Z,7.72
2022-10-08T05:07:44.258Z,5.57
2022-10-08T05:10:18.282Z,6.60
2022-10-08T05:12:52.133Z,5.30
2022-10-08T05:17:59.625Z,5.23
2022-10-08T05:20:33.537Z,5.82
2022-10-08T05:25:42.292Z,9.68
2022-10-08T05:28:16.187Z,12.25
2022-10-08T05:30:50.133Z,7.05
2022-10-08T05:33:24.240Z,7.05
2022-10-08T05:35:58.266Z,9.65
2022-10-08T05:38:35.174Z,9.35
2022-10-08T05:41:11.481Z,9.05
2022-10-08T05:43:46.229Z,15.98
2022-10-08T05:46:20.641Z,14.30
2022-10-08T05:48:55.086Z,13.15
2022-10-08T05:51:29.946Z,17.17
2022-10-08T05:54:05.317Z,17.90
2022-10-08T05:56:39.194Z,13.68
2022-10-08T05:59:18.255Z,12.68
2022-10-08T06:01:53.002Z,12.07
2022-10-08T06:04:26.832Z,18.55
2022-10-08T06:09:35.705Z,13.57
2022-10-08T06:12:10.169Z,13.95
2022-10-08T06:14:44.048Z,12.23
2022-10-08T06:19:51.690Z,11.77
2022-10-08T06:22:25.595Z,14.30
2022-10-08T06:25:00.836Z,15.68
2022-10-08T06:27:34.680Z,14.88
2022-10-08T06:32:42.537Z,15.00
2022-10-08T06:37:51.185Z,15.27
2022-10-08T06:40:26.474Z,13.52
2022-10-08T06:43:00.458Z,15.52
2022-10-08T06:45:34.551Z,16.73
2022-10-08T06:48:08.634Z,15.93
2022-10-08T06:50:43.924Z,15.52
2022-10-08T06:53:17.789Z,16.23
2022-10-08T06:55:57.859Z,14.93
2022-10-08T06:58:32.172Z,19.60
2022-10-08T07:01:08.159Z,15.80
2022-10-08T07:03:42.181Z,29.48
2022-10-08T07:06:16.227Z,17.02
2022-10-08T07:08:54.198Z,15.82
2022-10-08T07:11:30.410Z,14.35
2022-10-08T07:14:04.522Z,12.90
2022-10-08T07:16:38.492Z,13.55
2022-10-08T07:19:12.524Z,12.45
2022-10-08T07:21:46.455Z,15.20
2022-10-08T07:24:20.461Z,21.73
2022-10-08T07:26:55.808Z,17.77
2022-10-08T07:29:29.909Z,13.07
2022-10-08T07:32:04.014Z,16.70
2022-10-08T07:34:38.093Z,15.38
2022-10-08T07:37:12.223Z,23.88
2022-10-08T07:39:46.439Z,14.75
2022-10-08T07:42:22.074Z,14.05
2022-10-08T07:44:55.952Z,16.13
2022-10-08T07:47:30.226Z,18.83
2022-10-08T07:50:04.566Z,25.10
2022-10-08T07:52:38.673Z,31.40
2022-10-08T07:55:12.769Z,19.80
2022-10-08T07:57:48.171Z,18.77
2022-10-08T08:00:26.058Z,24.80
2022-10-08T08:03:00.346Z,20.60
2022-10-08T08:05:36.380Z,22.35
2022-10-08T08:08:11.338Z,18.52
2022-10-08T08:10:45.329Z,20.77
2022-10-08T08:13:20.888Z,19.17
2022-10-08T08:15:59.447Z,14.75
2022-10-08T08:18:35.225Z,20.15
2022-10-08T08:21:11.196Z,14.65
2022-10-08T08:23:48.361Z,17.15
2022-10-08T08:26:23.906Z,16.98
2022-10-08T08:29:02.917Z,17.75
2022-10-08T08:31:39.024Z,13.38
2022-10-08T08:34:15.508Z,20.17
2022-10-08T08:36:51.344Z,16.65
2022-10-08T08:39:26.857Z,14.35
2022-10-08T08:42:17.646Z,12.13
2022-10-08T08:44:59.953Z,18.35
2022-10-08T08:47:37.927Z,12.90
2022-10-08T08:50:25.121Z,20.08
2022-10-08T08:52:59.488Z,17.85
2022-10-08T08:55:40.705Z,17.42
2022-10-08T08:58:25.851Z,15.60
2022-10-08T09:01:07.722Z,15.68
2022-10-08T09:03:45.373Z,11.82
2022-10-08T09:06:23.377Z,17.60
2022-10-08T09:09:02.006Z,12.95
2022-10-08T09:11:38.344Z,12.38
2022-10-08T09:14:29.280Z,12.57
2022-10-08T09:17:15.256Z,15.15
2022-10-08T09:19:50.862Z,13.70
2022-10-08T09:22:28.034Z,11.98
2022-10-08T09:25:04.523Z,13.75
2022-10-08T09:27:46.377Z,12.63
2022-10-08T09:30:32.896Z,10.18
2022-10-08T09:33:25.230Z,12.35
2022-10-08T09:35:59.604Z,12.88
2022-10-08T09:38:38.448Z,14.40
2022-10-08T09:41:19.831Z,9.82
2022-10-08T09:44:12.595Z,13.13
2022-10-08T09:46:47.753Z,14.73
2022-10-08T09:49:31.743Z,13.38
2022-10-08T09:52:10.591Z,14.50
2022-10-08T09:54:49.715Z,10.25
2022-10-08T09:57:24.181Z,9.32
2022-10-08T10:00:00.400Z,10.70
2022-10-08T10:02:36.506Z,11.88
2022-10-08T10:05:25.096Z,16.23
2022-10-08T10:07:59.050Z,13.07
2022-10-08T10:10:37.341Z,13.00
2022-10-08T10:13:15.537Z,15.13
2022-10-08T10:15:53.603Z,16.75
2022-10-08T10:18:32.090Z,13.23
2022-10-08T10:21:15.686Z,17.05
2022-10-08T10:23:58.565Z,16.55
2022-10-08T10:26:38.551Z,13.10
2022-10-08T10:29:17.350Z,16.42
2022-10-08T10:31:55.902Z,13.95
2022-10-08T10:34:31.907Z,19.02
2022-10-08T10:37:11.557Z,22.63
2022-10-08T10:39:51.207Z,24.70
2022-10-08T10:42:36.618Z,15.00
2022-10-08T10:45:20.061Z,23.95
2022-10-08T10:47:55.776Z,13.73
2022-10-08T10:50:38.212Z,12.63
2022-10-08T10:53:22.284Z,11.07
2022-10-08T10:56:06.805Z,16.05
2022-10-08T10:59:03.188Z,11.85
2022-10-08T11:01:45.772Z,11.30
2022-10-08T11:04:28.463Z,19.65
2022-10-08T11:07:07.307Z,25.27
2022-10-08T11:09:51.137Z,29.33
2022-10-08T11:12:35.389Z,14.38
2022-10-08T11:15:23.940Z,28.50
2022-10-08T11:18:13.752Z,30.92
2022-10-08T11:21:05.672Z,28.77
2022-10-08T11:23:59.288Z,25.05
2022-10-08T11:26:40.547Z,24.70
2022-10-08T11:29:20.878Z,20.40
2022-10-08T11:31:54.924Z,18.50
2022-10-08T11:34:31.684Z,18.73
2022-10-08T11:37:13.377Z,24.50
2022-10-08T11:39:54.182Z,26.60
2022-10-08T11:42:48.130Z,26.98
2022-10-08T11:48:32.303Z,17.95
2022-10-08T11:51:35.072Z,18.13
2022-10-08T11:54:26.449Z,13.55
2022-10-08T11:57:21.497Z,17.90
2022-10-08T12:00:09.999Z,21.58
2022-10-08T12:02:46.488Z,24.40
2022-10-08T12:05:48.017Z,27.02
2022-10-08T12:08:53.361Z,14.63
2022-10-08T12:11:53.398Z,17.95
2022-10-08T12:14:48.596Z,15.07
2022-10-08T12:17:24.172Z,11.75
2022-10-08T12:20:19.483Z,11.55
2022-10-08T12:23:06.212Z,13.60
2022-10-08T12:25:44.397Z,15.48
2022-10-08T12:28:46.926Z,14.48
2022-10-08T12:31:32.716Z,16.83
2022-10-08T12:34:18.238Z,11.55
2022-10-08T12:37:02.504Z,15.60
2022-10-08T12:39:39.558Z,19.05
2022-10-08T12:42:20.105Z,16.75
2022-10-08T12:45:06.410Z,21.25
2022-10-08T12:47:48.234Z,18.98
2022-10-08T12:50:36.617Z,16.92
2022-10-08T12:53:15.554Z,14.25
2022-10-08T12:55:53.819Z,17.63
2022-10-08T12:58:30.722Z,18.10
2022-10-08T13:01:06.727Z,15.93
2022-10-08T13:03:40.779Z,23.63
2022-10-08T13:06:30.501Z,22.52
2022-10-08T13:09:29.128Z,19.40
2022-10-08T13:12:05.270Z,19.17
2022-10-08T13:14:40.581Z,14.43
2022-10-08T13:17:29.466Z,12.93
2022-10-08T13:20:09.351Z,20.55
2022-10-08T13:22:45.081Z,16.60
2022-10-08T13:25:39.909Z,17.27
2022-10-08T13:28:16.425Z,15.25
2022-10-08T13:30:53.639Z,14.85
2022-10-08T13:33:31.156Z,16.88
2022-10-08T13:36:05.256Z,15.75
2022-10-08T13:38:43.550Z,22.10
2022-10-08T13:41:25.281Z,15.55
2022-10-08T13:43:59.513Z,15.55
2022-10-08T13:46:33.430Z,16.35
2022-10-08T13:49:20.480Z,16.65
2022-10-08T13:51:54.487Z,16.25
2022-10-08T13:54:31.786Z,19.52
2022-10-08T13:57:05.859Z,22.60
2022-10-08T13:59:39.921Z,16.65
2022-10-08T14:02:15.516Z,17.75
2022-10-08T14:04:49.489Z,15.90
2022-10-08T14:07:27.513Z,18.48
2022-10-08T14:10:03.930Z,21.13
2022-10-08T14:12:37.903Z,14.93
2022-10-08T14:15:14.141Z,15.45
2022-10-08T14:17:49.742Z,19.27
2022-10-08T14:20:24.069Z,11.57
2022-10-08T14:22:58.314Z,17.95
2022-10-08T14:25:33.863Z,15.02
2022-10-08T14:28:08.089Z,10.68
2022-10-08T14:30:42.064Z,15.07
2022-10-08T14:33:16.377Z,12.90
2022-10-08T14:35:53.786Z,12.48
2022-10-08T14:38:32.814Z,10.93
2022-10-08T14:41:09.107Z,13.98
2022-10-08T14:43:43.154Z,11.02
2022-10-08T14:46:17.122Z,16.75
2022-10-08T14:48:51.138Z,12.70
2022-10-08T14:51:25.105Z,13.48
2022-10-08T14:53:59.055Z,9.45
2022-10-08T14:56:34.766Z,15.82
2022-10-08T14:59:08.771Z,16.25
2022-10-08T15:01:42.809Z,13.27
2022-10-08T15:04:17.102Z,14.00
2022-10-08T15:06:51.207Z,13.13
2022-10-08T15:09:25.226Z,10.80
2022-10-08T15:12:00.601Z,15.95
2022-10-08T15:14:38.174Z,13.77
2022-10-08T15:17:12.785Z,10.05
2022-10-08T15:19:47.008Z,11.90
2022-10-08T15:22:21.620Z,11.15
2022-10-08T15:24:55.568Z,13.90
2022-10-08T15:27:30.971Z,13.52
2022-10-08T15:30:05.658Z,19.15
2022-10-08T15:32:40.288Z,13.25
2022-10-08T15:35:14.283Z,18.73
2022-10-08T15:37:48.249Z,15.60
2022-10-08T15:40:22.171Z,17.55
2022-10-08T15:42:57.743Z,16.08
2022-10-08T15:45:31.773Z,15.68
2022-10-08T15:48:06.271Z,21.77
2022-10-08T15:50:40.474Z,24.73
2022-10-08T15:53:14.407Z,26.25
2022-10-08T15:55:56.042Z,15.02
2022-10-08T15:58:49.762Z,17.52
2022-10-08T16:01:25.180Z,16.60
2022-10-08T16:04:00.339Z,16.65
2022-10-08T16:06:36.466Z,22.83
2022-10-08T16:09:10.381Z,16.27
2022-10-08T16:11:45.285Z,24.52
2022-10-08T16:14:22.218Z,19.27
2022-10-08T16:16:56.507Z,19.83
2022-10-08T16:19:30.725Z,15.60
2022-10-08T16:22:05.577Z,26.38
2022-10-08T16:24:39.659Z,29.63
2022-10-08T16:27:13.739Z,26.27
2022-10-08T16:29:49.403Z,28.33
2022-10-08T16:32:23.377Z,29.83
2022-10-08T16:34:57.287Z,27.83
2022-10-08T16:37:31.253Z,26.10
2022-10-08T16:40:05.475Z,33.38
2022-10-08T16:42:39.366Z,41.65
2022-10-08T16:45:14.771Z,33.03
2022-10-08T16:47:48.762Z,31.10
2022-10-08T16:50:22.743Z,23.40
2022-10-08T16:52:56.741Z,34.30
2022-10-08T16:55:30.743Z,33.30
2022-10-08T16:58:04.813Z,35.72
2022-10-08T17:00:40.174Z,34.55
2022-10-08T17:03:14.455Z,29.95
2022-10-08T17:05:48.986Z,34.25
2022-10-08T17:08:22.950Z,28.45
2022-10-08T17:10:57.069Z,37.30
2022-10-08T17:13:31.048Z,29.88
2022-10-08T17:16:07.761Z,30.63
2022-10-08T17:18:43.359Z,35.10
2022-10-08T17:21:17.326Z,31.85
2022-10-08T17:23:52.130Z,33.13
2022-10-08T17:26:27.771Z,29.17
2022-10-08T17:29:04.933Z,29.23
2022-10-08T17:31:40.929Z,30.38
2022-10-08T17:34:14.966Z,28.40
2022-10-08T17:36:48.924Z,24.15
2022-10-08T17:39:22.917Z,25.23
2022-10-08T17:41:57.318Z,26.88
2022-10-08T17:44:31.382Z,26.90
2022-10-08T17:47:07.940Z,23.80
2022-10-08T17:49:41.884Z,25.17
2022-10-08T17:52:15.903Z,24.88
2022-10-08T17:54:49.849Z,20.85
2022-10-08T17:57:23.999Z,23.73
2022-10-08T17:59:58.295Z,23.30
2022-10-08T18:02:34.207Z,30.33
2022-10-08T18:05:08.788Z,26.15
2022-10-08T18:07:43.237Z,26.40
2022-10-08T18:10:17.428Z,29.92
2022-10-08T18:12:51.426Z,30.02
2022-10-08T18:15:26.203Z,28.83
2022-10-08T18:18:01.452Z,30.10
2022-10-08T18:20:35.783Z,31.48
2022-10-08T18:23:12.107Z,25.23
2022-10-08T18:25:48.376Z,29.30
2022-10-08T18:28:24.255Z,28.77
2022-10-08T18:30:58.288Z,37.72
2022-10-08T18:33:34.142Z,26.52
2022-10-08T18:36:10.364Z,29.83
2022-10-08T18:38:45.911Z,26.52
2022-10-08T18:41:22.237Z,27.48
2022-10-08T18:43:56.642Z,26.50
2022-10-08T18:46:30.865Z,24.70
2022-10-08T18:49:07.319Z,20.42
2022-10-08T18:51:41.253Z,21.23
2022-10-08T18:54:15.081Z,23.13
2022-10-08T18:59:22.543Z,27.27
2022-10-08T19:01:59.511Z,27.63
2022-10-08T19:04:35.042Z,25.63
2022-10-08T19:07:08.988Z,21.13
2022-10-08T19:09:42.888Z,24.13
2022-10-08T19:12:16.726Z,25.17
2022-10-08T19:14:50.998Z,20.90
2022-10-08T19:17:24.972Z,17.50
2022-10-08T19:20:00.251Z,17.75
2022-10-08T19:22:34.222Z,22.58
2022-10-08T19:25:08.827Z,19.92
2022-10-08T19:27:42.686Z,18.92
2022-10-08T19:30:21.301Z,21.55
2022-10-08T19:32:57.846Z,23.58
2022-10-08T19:35:33.426Z,15.55
2022-10-08T19:38:07.241Z,17.90
2022-10-08T19:43:15.148Z,18.40
2022-10-08T19:45:49.174Z,16.70
2022-10-08T19:50:58.130Z,17.10
2022-10-08T19:53:32.997Z,20.65
2022-10-08T19:56:10.064Z,20.95
2022-10-08T19:58:48.653Z,16.63
2022-10-08T20:01:24.909Z,20.08
2022-10-08T20:04:00.297Z,18.70
2022-10-08T20:06:39.538Z,21.90
2022-10-08T20:09:15.457Z,24.00
2022-10-08T20:11:49.351Z,13.18
2022-10-08T20:14:23.145Z,14.70
2022-10-08T20:19:30.558Z,9.20
2022-10-08T20:22:10.895Z,11.50
2022-10-08T20:24:47.750Z,10.70
2022-10-08T20:27:21.701Z,14.63
2022-10-08T20:29:55.616Z,12.73
2022-10-08T20:32:33.205Z,10.10
2022-10-08T20:35:08.555Z,13.02
2022-10-08T20:37:44.021Z,12.05
2022-10-08T20:53:35.139Z,10.07
2022-10-08T20:59:51.662Z,12.95
2022-10-08T21:02:26.580Z,10.38
2022-10-08T21:05:00.552Z,14.32
2022-10-08T21:07:34.440Z,12.52
2022-10-08T21:10:11.231Z,12.77
2022-10-08T21:12:45.384Z,13.75
2022-10-08T21:15:19.608Z,9.68
2022-10-08T21:17:53.466Z,13.70
2022-10-08T21:20:27.384Z,11.18
2022-10-08T21:23:01.224Z,14.90
2022-10-08T21:25:36.534Z,10.02
2022-10-08T21:28:10.436Z,10.07
2022-10-08T21:30:44.404Z,9.90
2022-10-08T21:33:18.297Z,10.23
2022-10-08T21:35:52.158Z,9.77
2022-10-08T21:38:26.302Z,16.45
2022-10-08T21:41:03.602Z,11.82
2022-10-08T21:43:37.554Z,7.50
2022-10-08T21:46:12.843Z,9.18
2022-10-08T21:48:47.745Z,10.10
2022-10-08T21:51:22.089Z,10.13
2022-10-08T21:53:58.656Z,11.40
2022-10-08T21:56:35.880Z,9.55
2022-10-08T21:59:12.435Z,10.20
2022-10-08T22:01:48.003Z,6.45
2022-10-08T22:04:23.839Z,10.52
2022-10-08T22:06:59.768Z,8.52
2022-10-08T22:09:35.120Z,9.02
2022-10-08T22:12:10.716Z,10.35
2022-10-08T22:14:44.720Z,9.35
2022-10-08T22:17:18.941Z,7.72
2022-10-08T22:19:52.814Z,11.60
2022-10-08T22:22:26.756Z,8.45
2022-10-08T22:25:00.639Z,7.35
2022-10-08T22:27:35.950Z,6.78
2022-10-08T22:30:11.505Z,7.32
2022-10-08T22:32:46.080Z,7.45
2022-10-08T22:35:20.330Z,5.47
2022-10-08T22:37:54.365Z,8.07
2022-10-08T22:40:28.511Z,10.43
2022-10-08T22:43:04.034Z,5.43
2022-10-08T22:45:39.615Z,5.00
2022-10-08T22:48:13.531Z,9.32
2022-10-08T22:50:47.505Z,8.18
2022-10-08T22:53:22.092Z,6.55
2022-10-08T22:55:56.162Z,6.70
2022-10-08T22:58:31.525Z,8.60
2022-10-08T23:01:07.967Z,5.70
2022-10-08T23:03:42.065Z,9.07
2022-10-08T23:06:17.666Z,14.00
2022-10-08T23:08:55.327Z,6.15
2022-10-08T23:11:31.593Z,7.75
2022-10-08T23:14:07.870Z,4.72
2022-10-08T23:16:42.012Z,6.28
2022-10-08T23:19:16.887Z,4.93
2022-10-08T23:21:50.911Z,6.35
2022-10-08T23:24:24.945Z,7.25
2022-10-08T23:26:58.926Z,4.82
2022-10-08T23:29:34.237Z,9.23
2022-10-08T23:32:08.348Z,5.28
2022-10-08T23:34:42.318Z,5.68
2022-10-08T23:37:16.286Z,5.38
2022-10-08T23:39:53.236Z,6.68
2022-10-08T23:42:29.618Z,4.78
2022-10-08T23:45:05.336Z,4.65
2022-10-08T23:47:39.568Z,5.38
2022-10-08T23:50:13.546Z,4.03
2022-10-08T23:52:47.677Z,6.38
2022-10-08T23:55:21.857Z,5.38
2022-10-08T23:57:55.906Z,4.45
